createdAt,value
2022-09-12T00:00:35.462Z,0.00
2022-09-12T00:01:35.478Z,0.00
2022-09-12T00:02:35.459Z,0.00
2022-09-12T00:03:35.444Z,0.00
2022-09-12T00:04:35.520Z,0.00
2022-09-12T00:05:35.428Z,0.00
2022-09-12T00:06:35.435Z,0.00
2022-09-12T00:07:35.406Z,0.00
2022-09-12T00:08:35.451Z,0.00
2022-09-12T00:09:35.427Z,0.00
2022-09-12T00:10:35.397Z,0.00
2022-09-12T00:11:35.376Z,0.00
2022-09-12T00:12:35.380Z,0.00
2022-09-12T00:13:38.392Z,0.00
2022-09-12T00:14:37.397Z,0.00
2022-09-12T00:15:35.351Z,0.00
2022-09-12T00:16:35.413Z,0.00
2022-09-12T00:17:35.349Z,0.00
2022-09-12T00:18:35.396Z,0.00
2022-09-12T00:19:35.313Z,0.00
2022-09-12T00:20:35.308Z,0.00
2022-09-12T00:21:35.300Z,0.00
2022-09-12T00:22:35.289Z,0.00
2022-09-12T00:23:35.351Z,0.00
2022-09-12T00:24:35.291Z,0.00
2022-09-12T00:25:35.291Z,0.00
2022-09-12T00:26:35.264Z,0.00
2022-09-12T00:27:35.260Z,0.00
2022-09-12T00:28:35.335Z,0.00
2022-09-12T00:29:35.233Z,0.00
2022-09-12T00:30:35.229Z,0.00
2022-09-12T00:31:35.244Z,0.00
2022-09-12T00:32:35.210Z,0.00
2022-09-12T00:33:35.256Z,0.00
2022-09-12T00:34:35.200Z,0.00
2022-09-12T00:35:35.181Z,0.00
2022-09-12T00:36:35.189Z,0.00
2022-09-12T00:37:35.167Z,0.00
2022-09-12T00:38:35.241Z,0.00
2022-09-12T00:39:35.171Z,0.00
2022-09-12T00:40:35.145Z,0.00
2022-09-12T00:41:35.134Z,0.00
2022-09-12T00:42:35.125Z,0.00
2022-09-12T00:43:35.142Z,0.00
2022-09-12T00:44:35.119Z,0.00
2022-09-12T00:45:35.171Z,0.00
2022-09-12T00:46:35.104Z,0.00
2022-09-12T00:47:35.086Z,0.00
2022-09-12T00:48:35.194Z,0.00
2022-09-12T00:49:35.076Z,0.00
2022-09-12T00:50:35.113Z,0.00
2022-09-12T00:51:35.069Z,0.00
2022-09-12T00:52:35.050Z,0.00
2022-09-12T00:53:35.082Z,0.00
2022-09-12T00:54:35.035Z,0.00
2022-09-12T00:55:35.051Z,0.00
2022-09-12T00:56:35.025Z,0.00
2022-09-12T00:57:35.021Z,0.00
2022-09-12T00:58:35.069Z,0.00
2022-09-12T00:59:34.997Z,0.00
2022-09-12T01:00:34.990Z,0.00
2022-09-12T01:01:35.096Z,0.00
2022-09-12T01:02:35.113Z,0.00
2022-09-12T01:03:34.974Z,0.00
2022-09-12T01:04:34.978Z,0.00
2022-09-12T01:05:34.969Z,0.00
2022-09-12T01:06:34.958Z,0.00
2022-09-12T01:07:39.369Z,0.00
2022-09-12T01:08:36.933Z,0.00
2022-09-12T01:09:34.961Z,0.00
2022-09-12T01:10:34.924Z,0.00
2022-09-12T01:11:34.907Z,0.00
2022-09-12T01:12:34.928Z,0.00
2022-09-12T01:13:34.886Z,0.00
2022-09-12T01:14:34.886Z,0.00
2022-09-12T01:15:34.878Z,0.00
2022-09-12T01:16:34.891Z,0.00
2022-09-12T01:17:34.902Z,0.00
2022-09-12T01:18:34.899Z,0.00
2022-09-12T01:19:34.850Z,0.00
2022-09-12T01:20:34.847Z,0.00
2022-09-12T01:21:34.854Z,0.00
2022-09-12T01:22:34.860Z,0.00
2022-09-12T01:23:34.839Z,0.00
2022-09-12T01:24:34.813Z,0.00
2022-09-12T01:25:34.798Z,0.00
2022-09-12T01:26:34.796Z,0.00
2022-09-12T01:27:34.800Z,0.00
2022-09-12T01:28:34.828Z,0.00
2022-09-12T01:29:34.772Z,0.00
2022-09-12T01:30:34.771Z,0.00
2022-09-12T01:31:34.772Z,0.00
2022-09-12T01:32:34.749Z,0.00
2022-09-12T01:33:34.763Z,0.00
2022-09-12T01:34:34.732Z,0.00
2022-09-12T01:35:34.722Z,0.00
2022-09-12T01:36:34.746Z,0.00
2022-09-12T01:37:34.714Z,0.00
2022-09-12T01:38:34.791Z,0.00
2022-09-12T01:39:34.690Z,0.00
2022-09-12T01:40:34.699Z,0.00
2022-09-12T01:41:34.680Z,0.00
2022-09-12T01:42:34.679Z,0.00
2022-09-12T01:43:34.693Z,0.00
2022-09-12T01:44:34.662Z,0.00
2022-09-12T01:45:34.672Z,0.00
2022-09-12T01:46:34.644Z,0.00
2022-09-12T01:47:34.637Z,0.00
2022-09-12T01:48:34.705Z,0.00
2022-09-12T01:49:34.613Z,0.00
2022-09-12T01:50:34.612Z,0.00
2022-09-12T01:51:34.599Z,0.00
2022-09-12T01:52:34.595Z,0.00
2022-09-12T01:53:34.626Z,0.00
2022-09-12T01:54:34.579Z,0.00
2022-09-12T01:55:34.602Z,0.00
2022-09-12T01:56:34.564Z,0.00
2022-09-12T01:57:34.557Z,0.00
2022-09-12T01:58:34.640Z,0.00
2022-09-12T01:59:34.539Z,0.00
2022-09-12T02:00:34.532Z,0.00
2022-09-12T02:01:34.573Z,0.00
2022-09-12T02:02:34.516Z,0.00
2022-09-12T02:03:34.545Z,0.00
2022-09-12T02:04:34.561Z,0.00
2022-09-12T02:05:34.494Z,0.00
2022-09-12T02:06:34.484Z,0.00
2022-09-12T02:07:34.472Z,0.00
2022-09-12T02:08:34.509Z,0.00
2022-09-12T02:09:34.458Z,0.00
2022-09-12T02:10:34.460Z,0.00
2022-09-12T02:11:34.468Z,0.00
2022-09-12T02:12:34.440Z,0.00
2022-09-12T02:13:34.458Z,0.00
2022-09-12T02:14:34.426Z,0.00
2022-09-12T02:15:34.413Z,0.00
2022-09-12T02:16:34.586Z,0.00
2022-09-12T02:17:34.404Z,0.00
2022-09-12T02:18:34.456Z,0.00
2022-09-12T02:19:34.387Z,0.00
2022-09-12T02:20:49.278Z,0.00
2022-09-12T02:21:36.363Z,0.00
2022-09-12T02:22:34.359Z,0.00
2022-09-12T02:23:34.384Z,0.00
2022-09-12T02:24:34.345Z,0.00
2022-09-12T02:25:34.341Z,0.00
2022-09-12T02:26:34.350Z,0.00
2022-09-12T02:27:34.329Z,0.00
2022-09-12T02:28:34.340Z,0.00
2022-09-12T02:29:34.328Z,0.00
2022-09-12T02:30:34.334Z,0.00
2022-09-12T02:31:34.304Z,0.00
2022-09-12T02:32:34.314Z,0.00
2022-09-12T02:33:34.304Z,0.00
2022-09-12T02:34:34.274Z,0.00
2022-09-12T02:35:34.260Z,0.00
2022-09-12T02:36:34.259Z,0.00
2022-09-12T02:37:34.253Z,0.00
2022-09-12T02:38:34.262Z,0.00
2022-09-12T02:39:34.237Z,0.00
2022-09-12T02:40:34.222Z,0.00
2022-09-12T02:41:34.209Z,0.00
2022-09-12T02:42:34.214Z,0.00
2022-09-12T02:43:34.252Z,0.00
2022-09-12T02:44:34.197Z,0.00
2022-09-12T02:45:34.276Z,0.00
2022-09-12T02:46:34.175Z,0.00
2022-09-12T02:47:34.166Z,0.00
2022-09-12T02:48:34.188Z,0.00
2022-09-12T02:49:34.147Z,0.00
2022-09-12T02:50:34.140Z,0.00
2022-09-12T02:51:34.187Z,0.00
2022-09-12T02:52:34.158Z,0.00
2022-09-12T02:53:34.173Z,0.00
2022-09-12T02:54:34.111Z,0.00
2022-09-12T02:55:34.100Z,0.00
2022-09-12T02:56:34.102Z,0.00
2022-09-12T02:57:34.081Z,0.00
2022-09-12T02:58:34.101Z,0.00
2022-09-12T02:59:34.069Z,0.00
2022-09-12T03:00:34.066Z,0.00
2022-09-12T03:01:34.130Z,0.00
2022-09-12T03:02:34.049Z,0.00
2022-09-12T03:03:34.061Z,0.00
2022-09-12T03:04:35.537Z,0.00
2022-09-12T03:05:37.581Z,0.00
2022-09-12T03:06:35.951Z,0.00
2022-09-12T03:07:42.459Z,0.00
2022-09-12T03:08:35.948Z,0.00
2022-09-12T03:09:45.496Z,0.00
2022-09-12T03:10:35.448Z,0.00
2022-09-12T03:11:34.952Z,0.00
2022-09-12T03:12:34.071Z,0.00
2022-09-12T03:13:34.975Z,0.00
2022-09-12T03:14:37.542Z,0.00
2022-09-12T03:15:37.655Z,0.00
2022-09-12T03:16:39.009Z,0.00
2022-09-12T03:17:36.466Z,0.00
2022-09-12T03:18:36.535Z,0.00
2022-09-12T03:19:36.508Z,0.00
2022-09-12T03:20:35.542Z,0.00
2022-09-12T03:21:36.468Z,0.00
2022-09-12T03:22:35.660Z,0.00
2022-09-12T03:23:37.461Z,0.00
2022-09-12T03:24:36.454Z,0.00
2022-09-12T03:25:39.451Z,0.00
2022-09-12T03:26:37.455Z,0.00
2022-09-12T03:27:38.008Z,0.00
2022-09-12T03:28:34.564Z,0.00
2022-09-12T03:29:35.610Z,0.00
2022-09-12T03:30:35.160Z,0.00
2022-09-12T03:31:36.503Z,0.00
2022-09-12T03:32:36.503Z,0.00
2022-09-12T03:33:34.974Z,0.00
2022-09-12T03:34:35.152Z,0.00
2022-09-12T03:35:36.459Z,0.00
2022-09-12T03:36:35.455Z,0.00
2022-09-12T03:37:35.509Z,0.00
2022-09-12T03:38:37.999Z,0.00
2022-09-12T03:39:33.763Z,0.00
2022-09-12T03:40:33.757Z,0.00
2022-09-12T03:41:33.766Z,0.00
2022-09-12T03:42:33.763Z,0.00
2022-09-12T03:43:33.746Z,0.00
2022-09-12T03:44:33.774Z,0.00
2022-09-12T03:45:33.754Z,0.00
2022-09-12T03:46:33.729Z,0.00
2022-09-12T03:47:33.718Z,0.00
2022-09-12T03:48:33.714Z,0.00
2022-09-12T03:49:33.733Z,0.00
2022-09-12T03:50:33.684Z,0.00
2022-09-12T03:51:33.686Z,0.00
2022-09-12T03:52:33.679Z,0.00
2022-09-12T03:53:33.662Z,0.00
2022-09-12T03:54:33.691Z,0.00
2022-09-12T03:55:33.657Z,0.00
2022-09-12T03:56:33.658Z,0.00
2022-09-12T03:57:33.628Z,0.00
2022-09-12T03:58:33.652Z,0.00
2022-09-12T03:59:33.642Z,0.00
2022-09-12T04:00:33.663Z,0.00
2022-09-12T04:01:33.619Z,0.00
2022-09-12T04:02:33.625Z,0.00
2022-09-12T04:03:33.584Z,0.00
2022-09-12T04:04:33.608Z,0.00
2022-09-12T04:05:33.565Z,0.00
2022-09-12T04:06:33.562Z,0.00
2022-09-12T04:07:33.561Z,0.00
2022-09-12T04:08:33.548Z,0.00
2022-09-12T04:09:33.571Z,0.00
2022-09-12T04:10:33.538Z,0.00
2022-09-12T04:11:33.526Z,0.00
2022-09-12T04:12:33.580Z,0.00
2022-09-12T04:13:33.517Z,0.00
2022-09-12T04:14:33.573Z,0.00
2022-09-12T04:15:33.498Z,0.00
2022-09-12T04:16:33.571Z,0.00
2022-09-12T04:17:33.485Z,0.00
2022-09-12T04:18:33.474Z,0.00
2022-09-12T04:19:33.508Z,0.00
2022-09-12T04:20:33.464Z,0.00
2022-09-12T04:21:33.457Z,0.00
2022-09-12T04:22:33.529Z,0.00
2022-09-12T04:23:33.562Z,0.00
2022-09-12T04:24:33.461Z,0.00
2022-09-12T04:25:33.423Z,0.00
2022-09-12T04:26:33.416Z,0.00
2022-09-12T04:27:33.402Z,0.00
2022-09-12T04:28:33.393Z,0.00
2022-09-12T04:29:33.411Z,0.00
2022-09-12T04:30:33.416Z,0.00
2022-09-12T04:31:33.421Z,4.00
2022-09-12T04:32:33.364Z,0.00
2022-09-12T04:33:33.352Z,0.00
2022-09-12T04:34:33.369Z,4.00
2022-09-12T04:35:33.442Z,0.00
2022-09-12T04:36:33.333Z,4.00
2022-09-12T04:37:33.325Z,4.00
2022-09-12T04:38:33.314Z,4.00
2022-09-12T04:39:33.327Z,4.00
2022-09-12T04:40:33.303Z,4.00
2022-09-12T04:41:33.293Z,8.00
2022-09-12T04:42:33.285Z,8.00
2022-09-12T04:43:33.275Z,4.00
2022-09-12T04:44:33.289Z,8.00
2022-09-12T04:45:33.277Z,8.00
2022-09-12T04:46:33.252Z,8.00
2022-09-12T04:47:33.246Z,12.00
2022-09-12T04:48:33.236Z,12.00
2022-09-12T04:49:33.264Z,16.00
2022-09-12T04:50:33.218Z,16.00
2022-09-12T04:51:33.207Z,16.00
2022-09-12T04:52:34.206Z,20.00
2022-09-12T04:53:33.196Z,20.00
2022-09-12T04:54:33.209Z,24.00
2022-09-12T04:55:33.181Z,24.00
2022-09-12T04:56:33.173Z,24.00
2022-09-12T04:57:33.168Z,28.00
2022-09-12T04:58:33.199Z,28.00
2022-09-12T04:59:33.176Z,32.00
2022-09-12T05:00:33.141Z,32.00
2022-09-12T05:01:33.188Z,36.00
2022-09-12T05:02:33.150Z,40.00
2022-09-12T05:03:34.118Z,40.00
2022-09-12T05:04:33.149Z,44.00
2022-09-12T05:05:33.112Z,44.00
2022-09-12T05:06:33.102Z,48.00
2022-09-12T05:07:33.083Z,48.00
2022-09-12T05:08:33.088Z,52.00
2022-09-12T05:09:33.157Z,52.00
2022-09-12T05:10:33.066Z,56.00
2022-09-12T05:12:02.130Z,60.00
2022-09-12T05:12:35.047Z,64.00
2022-09-12T05:13:33.047Z,68.00
2022-09-12T05:14:33.132Z,72.00
2022-09-12T05:15:33.035Z,72.00
2022-09-12T05:16:33.047Z,76.00
2022-09-12T05:17:33.009Z,80.00
2022-09-12T05:18:32.999Z,84.00
2022-09-12T05:19:33.027Z,88.00
2022-09-12T05:20:32.978Z,92.00
2022-09-12T05:21:33.978Z,96.00
2022-09-12T05:22:32.978Z,100.00
2022-09-12T05:23:32.960Z,108.00
2022-09-12T05:24:32.994Z,108.00
2022-09-12T05:25:32.960Z,112.00
2022-09-12T05:26:32.941Z,120.00
2022-09-12T05:27:32.953Z,128.00
2022-09-12T05:28:32.935Z,128.00
2022-09-12T05:29:32.945Z,136.00
2022-09-12T05:30:32.954Z,136.00
2022-09-12T05:31:32.899Z,140.00
2022-09-12T05:32:32.888Z,148.00
2022-09-12T05:33:32.894Z,152.00
2022-09-12T05:34:32.901Z,156.00
2022-09-12T05:35:32.900Z,156.00
2022-09-12T05:36:32.867Z,160.00
2022-09-12T05:37:32.858Z,164.00
2022-09-12T05:38:32.842Z,168.00
2022-09-12T05:39:32.860Z,168.00
2022-09-12T05:40:32.832Z,172.00
2022-09-12T05:41:32.824Z,180.00
2022-09-12T05:42:32.810Z,188.00
2022-09-12T05:43:32.803Z,192.00
2022-09-12T05:44:32.828Z,196.00
2022-09-12T05:45:32.855Z,200.00
2022-09-12T05:46:32.784Z,208.00
2022-09-12T05:47:32.775Z,212.00
2022-09-12T05:48:32.762Z,220.00
2022-09-12T05:49:32.818Z,224.00
2022-09-12T05:50:32.747Z,228.00
2022-09-12T05:51:32.742Z,228.00
2022-09-12T05:52:32.738Z,240.00
2022-09-12T05:53:32.760Z,248.00
2022-09-12T05:54:32.719Z,252.00
2022-09-12T05:55:32.739Z,256.00
2022-09-12T05:56:32.705Z,260.00
2022-09-12T05:57:32.715Z,268.00
2022-09-12T05:58:32.692Z,280.00
2022-09-12T05:59:32.682Z,288.00
2022-09-12T06:00:33.661Z,300.00
2022-09-12T06:01:33.708Z,316.00
2022-09-12T06:02:32.697Z,332.00
2022-09-12T06:03:32.655Z,344.00
2022-09-12T06:04:32.642Z,356.00
2022-09-12T06:05:32.665Z,356.00
2022-09-12T06:06:32.632Z,356.00
2022-09-12T06:07:32.630Z,364.00
2022-09-12T06:08:32.616Z,368.00
2022-09-12T06:09:32.630Z,368.00
2022-09-12T06:10:32.636Z,368.00
2022-09-12T06:11:32.650Z,372.00
2022-09-12T06:12:32.591Z,376.00
2022-09-12T06:13:32.577Z,376.00
2022-09-12T06:14:32.572Z,380.00
2022-09-12T06:15:32.616Z,380.00
2022-09-12T06:16:32.682Z,380.00
2022-09-12T06:17:32.565Z,388.00
2022-09-12T06:18:32.538Z,400.00
2022-09-12T06:19:32.578Z,416.00
2022-09-12T06:20:32.554Z,416.00
2022-09-12T06:21:32.517Z,416.00
2022-09-12T06:22:32.514Z,420.00
2022-09-12T06:23:32.499Z,424.00
2022-09-12T06:24:32.495Z,432.00
2022-09-12T06:25:32.520Z,436.00
2022-09-12T06:26:32.480Z,440.00
2022-09-12T06:27:32.473Z,444.00
2022-09-12T06:28:32.460Z,444.00
2022-09-12T06:29:32.453Z,452.00
2022-09-12T06:30:32.498Z,460.00
2022-09-12T06:31:32.438Z,468.00
2022-09-12T06:32:32.428Z,480.00
2022-09-12T06:33:32.422Z,492.00
2022-09-12T06:34:32.412Z,508.00
2022-09-12T06:35:32.439Z,512.00
2022-09-12T06:36:32.397Z,524.00
2022-09-12T06:37:32.387Z,532.00
2022-09-12T06:38:32.385Z,536.00
2022-09-12T06:39:32.374Z,544.00
2022-09-12T06:40:32.417Z,548.00
2022-09-12T06:41:32.379Z,560.00
2022-09-12T06:42:32.353Z,572.00
2022-09-12T06:43:32.421Z,580.00
2022-09-12T06:44:32.334Z,592.00
2022-09-12T06:45:32.356Z,604.00
2022-09-12T06:46:32.344Z,616.00
2022-09-12T06:47:32.312Z,636.00
2022-09-12T06:48:32.300Z,656.00
2022-09-12T06:49:32.299Z,668.00
2022-09-12T06:50:32.310Z,672.00
2022-09-12T06:51:32.285Z,692.00
2022-09-12T06:52:32.284Z,708.00
2022-09-12T06:53:32.263Z,740.00
2022-09-12T06:54:32.256Z,748.00
2022-09-12T06:55:32.273Z,752.00
2022-09-12T06:56:32.247Z,768.00
2022-09-12T06:57:32.237Z,768.00
2022-09-12T06:58:32.229Z,772.00
2022-09-12T06:59:32.224Z,776.00
2022-09-12T07:00:32.240Z,784.00
2022-09-12T07:01:32.259Z,788.00
2022-09-12T07:02:32.263Z,816.00
2022-09-12T07:03:32.198Z,824.00
2022-09-12T07:04:32.181Z,820.00
2022-09-12T07:05:32.225Z,808.00
2022-09-12T07:06:32.311Z,800.00
2022-09-12T07:07:32.181Z,808.00
2022-09-12T07:08:32.146Z,816.00
2022-09-12T07:09:32.139Z,832.00
2022-09-12T07:10:32.161Z,844.00
2022-09-12T07:11:32.130Z,860.00
2022-09-12T07:12:32.120Z,868.00
2022-09-12T07:13:32.132Z,884.00
2022-09-12T07:14:32.111Z,904.00
2022-09-12T07:15:32.123Z,932.00
2022-09-12T07:16:32.170Z,964.00
2022-09-12T07:17:32.081Z,960.00
2022-09-12T07:18:32.086Z,960.00
2022-09-12T07:19:32.066Z,980.00
2022-09-12T07:20:32.084Z,992.00
2022-09-12T07:21:32.048Z,1020.00
2022-09-12T07:22:32.047Z,1044.00
2022-09-12T07:23:32.042Z,1044.00
2022-09-12T07:24:32.024Z,1056.00
2022-09-12T07:25:32.044Z,1036.00
2022-09-12T07:26:32.029Z,1016.00
2022-09-12T07:27:32.007Z,1020.00
2022-09-12T07:28:31.995Z,1064.00
2022-09-12T07:29:36.861Z,1060.00
2022-09-12T07:30:34.057Z,1080.00
2022-09-12T07:31:32.001Z,1092.00
2022-09-12T07:32:31.965Z,1076.00
2022-09-12T07:33:31.957Z,1076.00
2022-09-12T07:34:31.948Z,1080.00
2022-09-12T07:35:31.940Z,1108.00
2022-09-12T07:36:32.248Z,1100.00
2022-09-12T07:37:31.916Z,1096.00
2022-09-12T07:38:32.940Z,1084.00
2022-09-12T07:39:31.908Z,1064.00
2022-09-12T07:40:31.902Z,1052.00
2022-09-12T07:41:31.919Z,1064.00
2022-09-12T07:42:31.887Z,1056.00
2022-09-12T07:43:31.881Z,1068.00
2022-09-12T07:44:31.882Z,1084.00
2022-09-12T07:45:31.878Z,1084.00
2022-09-12T07:46:31.888Z,1076.00
2022-09-12T07:47:31.851Z,1100.00
2022-09-12T07:48:31.845Z,1108.00
2022-09-12T07:49:31.837Z,1144.00
2022-09-12T07:50:31.848Z,1156.00
2022-09-12T07:51:31.843Z,1164.00
2022-09-12T07:52:31.800Z,1180.00
2022-09-12T07:53:31.800Z,1200.00
2022-09-12T07:54:31.786Z,1140.00
2022-09-12T07:55:31.778Z,1160.00
2022-09-12T07:56:35.711Z,1132.00
2022-09-12T07:57:33.763Z,1144.00
2022-09-12T07:58:31.763Z,1184.00
2022-09-12T07:59:51.583Z,1152.00
2022-09-12T08:00:33.743Z,1156.00
2022-09-12T08:01:32.220Z,1184.00
2022-09-12T08:02:31.848Z,1184.00
2022-09-12T08:03:31.714Z,1192.00
2022-09-12T08:04:31.707Z,1184.00
2022-09-12T08:05:31.699Z,1204.00
2022-09-12T08:06:31.722Z,1220.00
2022-09-12T08:07:31.685Z,1216.00
2022-09-12T08:08:31.678Z,1244.00
2022-09-12T08:09:31.669Z,1240.00
2022-09-12T08:10:31.666Z,1220.00
2022-09-12T08:11:31.673Z,1152.00
2022-09-12T08:12:31.648Z,1148.00
2022-09-12T08:13:31.636Z,1088.00
2022-09-12T08:14:31.630Z,1012.00
2022-09-12T08:15:31.687Z,1068.00
2022-09-12T08:16:31.640Z,1152.00
2022-09-12T08:17:31.608Z,1188.00
2022-09-12T08:18:31.605Z,1280.00
2022-09-12T08:19:31.594Z,1292.00
2022-09-12T08:20:31.592Z,1336.00
2022-09-12T08:21:31.608Z,1304.00
2022-09-12T08:22:31.570Z,1344.00
2022-09-12T08:23:31.561Z,1376.00
2022-09-12T08:24:31.562Z,1400.00
2022-09-12T08:25:31.539Z,1424.00
2022-09-12T08:26:31.567Z,1428.00
2022-09-12T08:27:31.542Z,1440.00
2022-09-12T08:28:31.530Z,1440.00
2022-09-12T08:29:31.511Z,1416.00
2022-09-12T08:30:31.568Z,1444.00
2022-09-12T08:31:31.529Z,1456.00
2022-09-12T08:32:31.488Z,1464.00
2022-09-12T08:33:32.119Z,1460.00
2022-09-12T08:34:31.473Z,1476.00
2022-09-12T08:35:32.243Z,1488.00
2022-09-12T08:36:31.488Z,1476.00
2022-09-12T08:37:31.451Z,1460.00
2022-09-12T08:38:31.446Z,1480.00
2022-09-12T08:39:31.438Z,1516.00
2022-09-12T08:40:31.422Z,1536.00
2022-09-12T08:41:31.447Z,1556.00
2022-09-12T08:42:31.413Z,1568.00
2022-09-12T08:43:31.397Z,1576.00
2022-09-12T08:44:31.395Z,1532.00
2022-09-12T08:45:31.411Z,1556.00
2022-09-12T08:46:31.404Z,1564.00
2022-09-12T08:47:31.367Z,1560.00
2022-09-12T08:48:31.360Z,1592.00
2022-09-12T08:49:31.364Z,1552.00
2022-09-12T08:50:32.349Z,1568.00
2022-09-12T08:51:31.399Z,1580.00
2022-09-12T08:52:31.336Z,1612.00
2022-09-12T08:53:31.328Z,1652.00
2022-09-12T08:54:31.322Z,1736.00
2022-09-12T08:55:31.310Z,1780.00
2022-09-12T08:56:31.830Z,1848.00
2022-09-12T08:57:32.291Z,1944.00
2022-09-12T08:58:31.284Z,1964.00
2022-09-12T08:59:31.283Z,2188.00
2022-09-12T09:00:31.272Z,2188.00
2022-09-12T09:01:31.335Z,2588.00
2022-09-12T09:02:31.343Z,2444.00
2022-09-12T09:03:31.248Z,2780.00
2022-09-12T09:04:31.242Z,2808.00
2022-09-12T09:05:31.237Z,2812.00
2022-09-12T09:06:31.306Z,2820.00
2022-09-12T09:07:31.219Z,2828.00
2022-09-12T09:08:31.210Z,2884.00
2022-09-12T09:09:31.227Z,2872.00
2022-09-12T09:10:31.198Z,2932.00
2022-09-12T09:11:31.252Z,3000.00
2022-09-12T09:12:31.176Z,2916.00
2022-09-12T09:13:31.169Z,2928.00
2022-09-12T09:14:31.168Z,2804.00
2022-09-12T09:15:31.176Z,2756.00
2022-09-12T09:16:31.184Z,2680.00
2022-09-12T09:17:31.146Z,2548.00
2022-09-12T09:18:31.127Z,2536.00
2022-09-12T09:19:32.127Z,2620.00
2022-09-12T09:20:31.123Z,2680.00
2022-09-12T09:21:31.142Z,2720.00
2022-09-12T09:22:31.113Z,2664.00
2022-09-12T09:23:31.109Z,2720.00
2022-09-12T09:24:31.100Z,2676.00
2022-09-12T09:25:31.083Z,2748.00
2022-09-12T09:26:31.119Z,2704.00
2022-09-12T09:27:40.440Z,2672.00
2022-09-12T09:28:33.062Z,2688.00
2022-09-12T09:29:31.051Z,2660.00
2022-09-12T09:30:31.053Z,2664.00
2022-09-12T09:31:31.113Z,2672.00
2022-09-12T09:32:31.025Z,2616.00
2022-09-12T09:33:31.017Z,2508.00
2022-09-12T09:34:31.014Z,2448.00
2022-09-12T09:35:34.414Z,2624.00
2022-09-12T09:36:33.017Z,2484.00
2022-09-12T09:37:30.983Z,2520.00
2022-09-12T09:38:30.992Z,2620.00
2022-09-12T09:39:30.971Z,2640.00
2022-09-12T09:40:30.967Z,2620.00
2022-09-12T09:41:30.995Z,2572.00
2022-09-12T09:42:30.960Z,2632.00
2022-09-12T09:43:30.939Z,2648.00
2022-09-12T09:44:30.942Z,2740.00
2022-09-12T09:45:30.945Z,2740.00
2022-09-12T09:46:31.109Z,2780.00
2022-09-12T09:47:30.934Z,2800.00
2022-09-12T09:48:30.897Z,2808.00
2022-09-12T09:49:30.898Z,2824.00
2022-09-12T09:50:30.885Z,2840.00
2022-09-12T09:51:30.883Z,2804.00
2022-09-12T09:52:30.892Z,2860.00
2022-09-12T09:53:30.860Z,2920.00
2022-09-12T09:54:30.847Z,2916.00
2022-09-12T09:55:31.849Z,2840.00
2022-09-12T09:56:30.849Z,2768.00
2022-09-12T09:57:30.860Z,2752.00
2022-09-12T09:58:30.820Z,2704.00
2022-09-12T09:59:30.909Z,2748.00
2022-09-12T10:00:30.813Z,2672.00
2022-09-12T10:01:30.867Z,2528.00
2022-09-12T10:02:30.838Z,2520.00
2022-09-12T10:03:30.783Z,2504.00
2022-09-12T10:04:30.847Z,2508.00
2022-09-12T10:05:30.777Z,2528.00
2022-09-12T10:06:30.763Z,2516.00
2022-09-12T10:07:30.781Z,2528.00
2022-09-12T10:08:30.752Z,2460.00
2022-09-12T10:09:30.811Z,2420.00
2022-09-12T10:10:30.728Z,2448.00
2022-09-12T10:11:30.723Z,2488.00
2022-09-12T10:12:30.743Z,2476.00
2022-09-12T10:13:30.721Z,2428.00
2022-09-12T10:14:30.713Z,2400.00
2022-09-12T10:15:30.731Z,2392.00
2022-09-12T10:16:30.684Z,2408.00
2022-09-12T10:17:34.373Z,2432.00
2022-09-12T10:18:31.670Z,2444.00
2022-09-12T10:19:30.704Z,2440.00
2022-09-12T10:20:30.650Z,2416.00
2022-09-12T10:21:30.642Z,2408.00
2022-09-12T10:22:30.662Z,2388.00
2022-09-12T10:23:30.627Z,2372.00
2022-09-12T10:24:30.622Z,2364.00
2022-09-12T10:25:30.615Z,2360.00
2022-09-12T10:26:30.610Z,2316.00
2022-09-12T10:27:30.645Z,2268.00
2022-09-12T10:28:30.593Z,2280.00
2022-09-12T10:29:30.591Z,2280.00
2022-09-12T10:30:30.626Z,2268.00
2022-09-12T10:31:30.581Z,2240.00
2022-09-12T10:32:31.227Z,2216.00
2022-09-12T10:33:31.561Z,2176.00
2022-09-12T10:34:30.576Z,2160.00
2022-09-12T10:35:30.539Z,2156.00
2022-09-12T10:36:30.540Z,2152.00
2022-09-12T10:37:30.560Z,2164.00
2022-09-12T10:38:30.520Z,2212.00
2022-09-12T10:39:30.516Z,2276.00
2022-09-12T10:40:30.551Z,2372.00
2022-09-12T10:41:30.501Z,2496.00
2022-09-12T10:42:30.517Z,2520.00
2022-09-12T10:43:30.551Z,2580.00
2022-09-12T10:44:30.480Z,2592.00
2022-09-12T10:45:30.483Z,2628.00
2022-09-12T10:46:30.463Z,2632.00
2022-09-12T10:47:30.489Z,2628.00
2022-09-12T10:48:30.457Z,2600.00
2022-09-12T10:49:30.443Z,2528.00
2022-09-12T10:50:30.432Z,2508.00
2022-09-12T10:51:30.427Z,2480.00
2022-09-12T10:52:30.441Z,2484.00
2022-09-12T10:53:34.335Z,2512.00
2022-09-12T10:54:31.426Z,2512.00
2022-09-12T10:55:30.399Z,2524.00
2022-09-12T10:56:30.384Z,2544.00
2022-09-12T10:57:30.377Z,2628.00
2022-09-12T10:58:30.402Z,2640.00
2022-09-12T10:59:30.370Z,2676.00
2022-09-12T11:00:30.363Z,2688.00
2022-09-12T11:01:30.406Z,2684.00
2022-09-12T11:02:30.415Z,2796.00
2022-09-12T11:03:30.362Z,2768.00
2022-09-12T11:04:30.324Z,2824.00
2022-09-12T11:05:30.323Z,2780.00
2022-09-12T11:06:30.323Z,2740.00
2022-09-12T11:07:30.326Z,2764.00
2022-09-12T11:08:30.329Z,2764.00
2022-09-12T11:09:30.288Z,2692.00
2022-09-12T11:10:35.736Z,2748.00
2022-09-12T11:11:32.278Z,2632.00
2022-09-12T11:12:30.253Z,2532.00
2022-09-12T11:13:31.292Z,2580.00
2022-09-12T11:14:30.250Z,2556.00
2022-09-12T11:15:30.386Z,2636.00
2022-09-12T11:16:30.231Z,2604.00
2022-09-12T11:17:30.225Z,2668.00
2022-09-12T11:18:30.254Z,2624.00
2022-09-12T11:19:30.211Z,2636.00
2022-09-12T11:20:30.208Z,2588.00
2022-09-12T11:21:30.210Z,2640.00
2022-09-12T11:22:32.096Z,2592.00
2022-09-12T11:23:31.210Z,2712.00
2022-09-12T11:24:30.180Z,2716.00
2022-09-12T11:25:30.191Z,2748.00
2022-09-12T11:26:30.164Z,2732.00
2022-09-12T11:27:30.160Z,2668.00
2022-09-12T11:28:30.167Z,2600.00
2022-09-12T11:29:30.138Z,2604.00
2022-09-12T11:30:30.213Z,2696.00
2022-09-12T11:31:30.115Z,2556.00
2022-09-12T11:32:30.200Z,2512.00
2022-09-12T11:33:30.151Z,2568.00
2022-09-12T11:34:30.091Z,2580.00
2022-09-12T11:35:30.092Z,2576.00
2022-09-12T11:36:30.077Z,2512.00
2022-09-12T11:37:30.081Z,2500.00
2022-09-12T11:38:30.091Z,2512.00
2022-09-12T11:39:30.053Z,2520.00
2022-09-12T11:40:30.133Z,2476.00
2022-09-12T11:41:30.041Z,2480.00
2022-09-12T11:42:30.038Z,2440.00
2022-09-12T11:43:30.047Z,2492.00
2022-09-12T11:44:30.014Z,2452.00
2022-09-12T11:45:30.005Z,2436.00
2022-09-12T11:46:30.001Z,2388.00
2022-09-12T11:47:29.999Z,2368.00
2022-09-12T11:48:30.004Z,2332.00
2022-09-12T11:49:34.785Z,2320.00
2022-09-12T11:50:30.964Z,2304.00
2022-09-12T11:51:29.961Z,2272.00
2022-09-12T11:52:29.947Z,2216.00
2022-09-12T11:53:29.973Z,2204.00
2022-09-12T11:54:29.940Z,2176.00
2022-09-12T11:55:29.988Z,2160.00
2022-09-12T11:56:29.936Z,2172.00
2022-09-12T11:57:29.914Z,2144.00
2022-09-12T11:58:29.931Z,2116.00
2022-09-12T11:59:29.935Z,2120.00
2022-09-12T12:00:29.886Z,2112.00
2022-09-12T12:01:29.882Z,2120.00
2022-09-12T12:02:29.954Z,2120.00
2022-09-12T12:03:29.969Z,2116.00
2022-09-12T12:04:29.873Z,2104.00
2022-09-12T12:05:29.845Z,2088.00
2022-09-12T12:06:29.838Z,2068.00
2022-09-12T12:07:29.828Z,2064.00
2022-09-12T12:08:29.864Z,2076.00
2022-09-12T12:09:29.818Z,2092.00
2022-09-12T12:10:29.826Z,2100.00
2022-09-12T12:11:29.797Z,2120.00
2022-09-12T12:12:29.808Z,2144.00
2022-09-12T12:13:29.808Z,2168.00
2022-09-12T12:14:29.778Z,2172.00
2022-09-12T12:15:29.794Z,2188.00
2022-09-12T12:16:29.784Z,2176.00
2022-09-12T12:17:29.764Z,2192.00
2022-09-12T12:18:29.780Z,2188.00
2022-09-12T12:19:29.739Z,2240.00
2022-09-12T12:20:29.733Z,2256.00
2022-09-12T12:21:29.723Z,2320.00
2022-09-12T12:22:29.712Z,2380.00
2022-09-12T12:23:29.712Z,2472.00
2022-09-12T12:24:29.726Z,2548.00
2022-09-12T12:25:30.131Z,2620.00
2022-09-12T12:26:30.701Z,2688.00
2022-09-12T12:27:29.674Z,2860.00
2022-09-12T12:28:29.705Z,2980.00
2022-09-12T12:29:29.658Z,2988.00
2022-09-12T12:30:29.657Z,2500.00
2022-09-12T12:31:29.727Z,2984.00
2022-09-12T12:32:29.639Z,3004.00
2022-09-12T12:33:29.640Z,2872.00
2022-09-12T12:34:29.655Z,2820.00
2022-09-12T12:35:29.617Z,2752.00
2022-09-12T12:36:29.609Z,2472.00
2022-09-12T12:37:29.658Z,2488.00